SEATTLE-TACOMA INTL

KSEA (SEA)
Seattle, Washington
Towered

Vatsim Metar:
KSEA 041753Z VRB03KT 10SM OVC018 16/11 A3023 RMK AO2 SLP241 T01560111 10156 20128 51010

No ATC Online

Traffic

Inbound:
Ident
Type
Name
ETA
Phase
DAL950
MD88/L
Tyler Hanus KMSP
18:54 Z
Descent
AAL578
A321
Derrick Coston KPHX
19:29 Z
Cruse
ASA514
B739/L
Edward Jones KJFK
19:52 Z
Cruse
OEO209
A320/L
Alexandros Kitmeridis LGTS
20:03 Z
Cruse
DAL183
H/B763/L
Chris Chaplin KMCO
22:17 Z
Cruse
AAL689
A321/L
Zane Johnson TTPP
22:26 Z
Cruse
BAW49
H/B789/L
Jeff Coward EGLL
23:06 Z
Cruse

Outbound:
Ident
Type
Name
Destination
Phase
ASA65
B738/L
Michael Fuhr KJAX
PAKT
Boarding
N118K
PRM1/L
Kevin Yang KBFI
KJC
Climb